Time;durP1;ratioP1;P1;durP2;ratioP2;P2;SDS_P1;SDS_P2;PMS_P1;PMS_P2;Temp;Humidity;BMP_temperature;BMP_pressure;BME280_temperature;BME280_humidity;BME280_pressure;Samples;Min_cycle;Max_cycle;Signal;HPM_P1;HPM_P2
2023/09/14 00:00:33;;;;;;;;;;;10.60;99.90;;;;;;4984077;28;19941;-83
2023/09/14 00:03:00;;;;;;;;;;;10.60;99.90;;;;;;5000247;28;19985;-84
2023/09/14 00:05:25;;;;;;;;;;;10.60;99.90;;;;;;4984321;28;20012;-84
2023/09/14 00:07:51;;;;;;;;;;;10.50;99.90;;;;;;4985247;28;20021;-87
2023/09/14 00:10:17;;;;;;;;;;;10.50;99.90;;;;;;4998981;28;19934;-84
2023/09/14 00:12:42;;;;;;;;;;;10.50;99.90;;;;;;4973467;28;20368;-84
2023/09/14 00:15:08;;;;;;;;;;;10.50;99.90;;;;;;4987777;28;19929;-84
2023/09/14 00:17:34;;;;;;;;;;;10.50;99.90;;;;;;4964307;28;19946;-87
2023/09/14 00:20:00;;;;;;;;;;;10.40;99.90;;;;;;4930321;28;19927;-84
2023/09/14 00:22:25;;;;;;;;;;;10.40;99.90;;;;;;4934429;28;19927;-84
2023/09/14 00:24:51;;;;;;;;;;;10.40;99.90;;;;;;4932467;28;19926;-85
2023/09/14 00:27:16;;;;;;;;;;;10.40;99.90;;;;;;4932566;29;19981;-85
2023/09/14 00:29:42;;;;;;;;;;;10.40;99.90;;;;;;4932749;29;19931;-84
2023/09/14 00:32:07;;;;;;;;;;;10.50;99.90;;;;;;4933375;28;20057;-84
2023/09/14 00:34:33;;;;;;;;;;;10.40;99.90;;;;;;4933169;28;19931;-83
2023/09/14 00:36:58;;;;;;;;;;;10.40;99.90;;;;;;4942567;29;19938;-84
2023/09/14 00:39:24;;;;;;;;;;;10.40;99.90;;;;;;4930810;29;20385;-83
2023/09/14 00:41:49;;;;;;;;;;;10.40;99.90;;;;;;4934027;29;19950;-84
2023/09/14 00:44:15;;;;;;;;;;;10.30;99.90;;;;;;4933505;29;19931;-85
2023/09/14 00:46:41;;;;;;;;;;;10.40;99.90;;;;;;4933553;29;19980;-84
2023/09/14 00:49:06;;;;;;;;;;;10.30;99.90;;;;;;4932102;28;19927;-84
2023/09/14 00:51:32;;;;;;;;;;;10.30;99.90;;;;;;4937712;28;19931;-83
2023/09/14 00:53:58;;;;;;;;;;;10.20;99.90;;;;;;4962516;28;19949;-84
2023/09/14 00:56:26;;;;;;;;;;;10.30;99.90;;;;;;4933255;29;19922;-84
2023/09/14 00:58:53;;;;;;;;;;;10.20;99.90;;;;;;4933075;29;20023;-84
2023/09/14 01:01:18;;;;;;;;;;;10.20;99.90;;;;;;4953125;28;20436;-83
2023/09/14 01:03:44;;;;;;;;;;;10.20;99.90;;;;;;4973225;28;19929;-87
2023/09/14 01:06:10;;;;;;;;;;;10.20;99.90;;;;;;4973602;28;20064;-85
2023/09/14 01:08:36;;;;;;;;;;;10.20;99.90;;;;;;4988061;28;19925;-84
2023/09/14 01:11:02;;;;;;;;;;;10.10;99.90;;;;;;4989182;28;19932;-84
2023/09/14 01:13:36;;;;;;;;;;;10.20;99.90;;;;;;4965377;28;19968;-86
2023/09/14 01:16:06;;;;;;;;;;;10.10;99.90;;;;;;4971225;28;20296;-86
2023/09/14 01:19:08;;;;;;;;;;;10.20;99.90;;;;;;4982401;28;20017;-84
2023/09/14 01:21:45;;;;;;;;;;;10.10;99.90;;;;;;5004492;28;19932;-86
2023/09/14 01:24:17;;;;;;;;;;;10.10;99.90;;;;;;4959342;28;20381;-84
2023/09/14 01:26:43;;;;;;;;;;;10.20;99.90;;;;;;4979337;28;19934;-84
2023/09/14 01:29:09;;;;;;;;;;;10.10;99.90;;;;;;4978982;28;19934;-84
2023/09/14 01:31:35;;;;;;;;;;;10.10;99.90;;;;;;4986264;28;19925;-84
2023/09/14 01:34:00;;;;;;;;;;;10.00;99.90;;;;;;4966950;28;19987;-83
2023/09/14 01:36:29;;;;;;;;;;;10.00;99.90;;;;;;4984601;28;19929;-84
2023/09/14 01:38:55;;;;;;;;;;;10.00;99.90;;;;;;4978969;28;20357;-84
2023/09/14 01:41:21;;;;;;;;;;;9.90;99.90;;;;;;4990886;28;19979;-84
2023/09/14 01:43:49;;;;;;;;;;;9.90;99.90;;;;;;4968846;28;20033;-87
2023/09/14 01:46:15;;;;;;;;;;;9.80;99.90;;;;;;4977818;28;19928;-83
2023/09/14 01:48:41;;;;;;;;;;;9.80;99.90;;;;;;4992987;28;19925;-84
2023/09/14 01:51:07;;;;;;;;;;;9.90;99.90;;;;;;4983061;28;20016;-84
2023/09/14 01:53:33;;;;;;;;;;;9.90;99.90;;;;;;4983496;28;20030;-89
2023/09/14 01:55:58;;;;;;;;;;;9.90;99.90;;;;;;4966403;28;19935;-83
2023/09/14 01:58:25;;;;;;;;;;;9.90;99.90;;;;;;4960987;28;19936;-87
2023/09/14 02:00:50;;;;;;;;;;;9.90;99.90;;;;;;4977296;28;19933;-87
2023/09/14 02:03:16;;;;;;;;;;;9.90;99.90;;;;;;4992067;28;19935;-83
2023/09/14 02:05:41;;;;;;;;;;;9.90;99.90;;;;;;4978473;28;19967;-85
2023/09/14 02:08:07;;;;;;;;;;;9.80;99.90;;;;;;4966885;28;20453;-84
2023/09/14 02:10:32;;;;;;;;;;;9.90;99.90;;;;;;4970203;28;20317;-83
2023/09/14 02:12:58;;;;;;;;;;;9.80;99.90;;;;;;4996199;28;20281;-84
2023/09/14 02:15:24;;;;;;;;;;;9.80;99.90;;;;;;4982672;28;19932;-87
2023/09/14 02:17:49;;;;;;;;;;;9.80;99.90;;;;;;4993456;28;19925;-84
2023/09/14 02:20:15;;;;;;;;;;;9.70;99.90;;;;;;4992818;28;19950;-83
2023/09/14 02:22:41;;;;;;;;;;;9.70;99.90;;;;;;4933111;29;20408;-84
2023/09/14 02:25:06;;;;;;;;;;;9.70;99.90;;;;;;4932533;28;20436;-84
2023/09/14 02:27:32;;;;;;;;;;;9.70;99.90;;;;;;4934423;29;19938;-83
2023/09/14 02:29:58;;;;;;;;;;;9.70;99.90;;;;;;4932513;29;19927;-84
2023/09/14 02:32:23;;;;;;;;;;;9.70;99.90;;;;;;4932113;29;19931;-83
2023/09/14 02:34:49;;;;;;;;;;;9.70;99.90;;;;;;4932615;29;19972;-84
2023/09/14 02:37:15;;;;;;;;;;;9.60;99.90;;;;;;4932512;29;19997;-83
2023/09/14 02:39:40;;;;;;;;;;;9.60;99.90;;;;;;4945908;28;20017;-84
2023/09/14 02:42:06;;;;;;;;;;;9.60;99.90;;;;;;4939481;28;19926;-84
2023/09/14 02:44:31;;;;;;;;;;;9.60;99.90;;;;;;4915221;29;19927;-83
2023/09/14 02:46:57;;;;;;;;;;;9.60;99.90;;;;;;4939390;28;19934;-83
2023/09/14 02:49:22;;;;;;;;;;;9.60;99.90;;;;;;4915147;29;20382;-83
2023/09/14 02:51:48;;;;;;;;;;;9.60;99.90;;;;;;4927939;29;19930;-84
2023/09/14 02:54:14;;;;;;;;;;;9.60;99.90;;;;;;4930375;29;19935;-84
2023/09/14 02:56:41;;;;;;;;;;;9.60;99.90;;;;;;4929303;29;20044;-84
2023/09/14 02:59:06;;;;;;;;;;;9.50;99.90;;;;;;4930531;29;19949;-83
2023/09/14 03:01:32;;;;;;;;;;;9.50;99.90;;;;;;4932524;29;20014;-83
2023/09/14 03:03:58;;;;;;;;;;;9.50;99.90;;;;;;4930472;29;19974;-83
2023/09/14 03:06:24;;;;;;;;;;;9.50;99.90;;;;;;4932791;29;20028;-83
2023/09/14 03:08:49;;;;;;;;;;;9.40;99.90;;;;;;4932243;28;20441;-84
2023/09/14 03:11:15;;;;;;;;;;;9.40;99.90;;;;;;4971317;28;19925;-83
2023/09/14 03:13:41;;;;;;;;;;;9.40;99.90;;;;;;4979535;28;20007;-84
2023/09/14 03:16:06;;;;;;;;;;;9.50;99.90;;;;;;4990714;28;19935;-83
2023/09/14 03:18:32;;;;;;;;;;;9.40;99.90;;;;;;4988530;28;20011;-84
2023/09/14 03:20:57;;;;;;;;;;;9.50;99.90;;;;;;4970139;28;19942;-84
2023/09/14 03:23:23;;;;;;;;;;;9.40;99.90;;;;;;4979128;28;19925;-86
2023/09/14 03:25:49;;;;;;;;;;;9.40;99.90;;;;;;4990289;28;20292;-85
2023/09/14 03:28:15;;;;;;;;;;;9.40;99.90;;;;;;4988469;28;19936;-85
2023/09/14 03:30:41;;;;;;;;;;;9.40;99.90;;;;;;4979848;28;19929;-84
2023/09/14 03:33:06;;;;;;;;;;;9.40;99.90;;;;;;4933785;29;20297;-83
2023/09/14 03:35:32;;;;;;;;;;;9.40;99.90;;;;;;4950848;28;19925;-83
2023/09/14 03:37:58;;;;;;;;;;;9.40;99.90;;;;;;4993611;28;20295;-84
2023/09/14 03:40:23;;;;;;;;;;;9.40;99.90;;;;;;4979656;28;19927;-85
2023/09/14 03:42:49;;;;;;;;;;;9.40;99.90;;;;;;4972832;28;20388;-83
2023/09/14 03:45:15;;;;;;;;;;;9.30;99.90;;;;;;4989291;28;19925;-84
2023/09/14 03:47:41;;;;;;;;;;;9.40;99.90;;;;;;4983335;28;20163;-84
2023/09/14 03:50:08;;;;;;;;;;;9.40;99.90;;;;;;4985548;28;20378;-84
2023/09/14 03:52:33;;;;;;;;;;;9.30;99.90;;;;;;4964023;28;20383;-84
2023/09/14 03:54:59;;;;;;;;;;;9.30;99.90;;;;;;4957453;28;20021;-83
2023/09/14 03:57:24;;;;;;;;;;;9.30;99.90;;;;;;4971574;28;19925;-83
2023/09/14 03:59:51;;;;;;;;;;;9.30;99.90;;;;;;4994799;28;19970;-84
2023/09/14 04:02:17;;;;;;;;;;;9.30;99.90;;;;;;4983798;28;19933;-85
2023/09/14 04:04:43;;;;;;;;;;;9.30;99.90;;;;;;4982962;28;22055;-84
2023/09/14 04:07:08;;;;;;;;;;;9.30;99.90;;;;;;4981121;28;19931;-83
2023/09/14 04:09:34;;;;;;;;;;;9.30;99.90;;;;;;4997266;28;20287;-88
2023/09/14 04:12:00;;;;;;;;;;;9.30;99.90;;;;;;4986739;28;19936;-88
2023/09/14 04:14:25;;;;;;;;;;;9.30;99.90;;;;;;4993760;28;19942;-83
2023/09/14 04:16:51;;;;;;;;;;;9.30;99.90;;;;;;4940873;28;19953;-84
2023/09/14 04:19:17;;;;;;;;;;;9.20;99.90;;;;;;4934528;29;19931;-84
2023/09/14 04:21:43;;;;;;;;;;;9.20;99.90;;;;;;4926664;28;19984;-83
2023/09/14 04:24:08;;;;;;;;;;;9.10;99.90;;;;;;4910698;29;19927;-84
2023/09/14 04:26:35;;;;;;;;;;;9.00;99.90;;;;;;4928075;29;19961;-83
2023/09/14 04:29:00;;;;;;;;;;;9.00;99.90;;;;;;4933193;29;19926;-84
2023/09/14 04:31:26;;;;;;;;;;;9.00;99.90;;;;;;4933664;29;19933;-84
2023/09/14 04:33:52;;;;;;;;;;;9.10;99.90;;;;;;4917435;29;19926;-83
2023/09/14 04:36:17;;;;;;;;;;;9.10;99.90;;;;;;4959008;28;19927;-83
2023/09/14 04:38:43;;;;;;;;;;;9.10;99.90;;;;;;4931194;29;20009;-84
2023/09/14 04:41:08;;;;;;;;;;;9.00;99.90;;;;;;4933466;28;19997;-84
2023/09/14 04:43:34;;;;;;;;;;;9.00;99.90;;;;;;4934408;29;19980;-84
2023/09/14 04:46:00;;;;;;;;;;;9.00;99.90;;;;;;4941389;29;20282;-83
2023/09/14 04:48:26;;;;;;;;;;;9.00;99.90;;;;;;4933007;29;19994;-84
2023/09/14 04:50:54;;;;;;;;;;;9.00;99.90;;;;;;4934242;29;19957;-83
2023/09/14 04:53:20;;;;;;;;;;;9.00;99.90;;;;;;4933455;29;20384;-83
2023/09/14 04:55:45;;;;;;;;;;;9.00;99.90;;;;;;4934335;29;19931;-84
2023/09/14 04:58:11;;;;;;;;;;;9.00;99.90;;;;;;4931834;29;20382;-84
2023/09/14 05:00:37;;;;;;;;;;;9.00;99.90;;;;;;4938018;29;19931;-84
2023/09/14 05:03:04;;;;;;;;;;;9.00;99.90;;;;;;4933033;28;20407;-83
2023/09/14 05:05:31;;;;;;;;;;;9.00;99.90;;;;;;4954565;28;20440;-83
2023/09/14 05:07:57;;;;;;;;;;;9.00;99.90;;;;;;4955969;28;20819;-84
2023/09/14 05:10:23;;;;;;;;;;;9.00;99.90;;;;;;4974247;28;19933;-83
2023/09/14 05:12:49;;;;;;;;;;;9.10;99.90;;;;;;4982947;28;19929;-84
2023/09/14 05:15:14;;;;;;;;;;;9.00;99.90;;;;;;4981946;28;19989;-84
2023/09/14 05:17:40;;;;;;;;;;;9.10;99.90;;;;;;4953965;28;19978;-84
2023/09/14 05:20:07;;;;;;;;;;;9.00;99.90;;;;;;4974077;28;20275;-83
2023/09/14 05:22:34;;;;;;;;;;;9.00;99.90;;;;;;4963327;28;20417;-84
2023/09/14 05:25:00;;;;;;;;;;;9.10;99.90;;;;;;4953827;28;19979;-83
2023/09/14 05:27:25;;;;;;;;;;;9.10;99.90;;;;;;4980640;28;20069;-83
2023/09/14 05:29:51;;;;;;;;;;;9.20;99.90;;;;;;4970395;28;20429;-83
2023/09/14 05:32:16;;;;;;;;;;;9.20;99.90;;;;;;4978685;28;20091;-83
2023/09/14 05:34:42;;;;;;;;;;;9.10;99.90;;;;;;4954945;28;19931;-87
2023/09/14 05:37:08;;;;;;;;;;;9.10;99.90;;;;;;4984056;28;19925;-83
2023/09/14 05:39:34;;;;;;;;;;;9.10;99.90;;;;;;4981814;28;19934;-83
2023/09/14 05:41:59;;;;;;;;;;;9.10;99.90;;;;;;5015159;28;19928;-84
2023/09/14 05:44:25;;;;;;;;;;;9.10;99.90;;;;;;4980429;28;19925;-84
2023/09/14 05:46:51;;;;;;;;;;;9.20;99.90;;;;;;4972205;28;19925;-85
2023/09/14 05:49:17;;;;;;;;;;;9.30;99.90;;;;;;4962683;28;19939;-84
2023/09/14 05:51:42;;;;;;;;;;;9.30;99.90;;;;;;4946829;28;19934;-84
2023/09/14 05:54:08;;;;;;;;;;;9.40;99.90;;;;;;4962604;28;19979;-86
2023/09/14 05:56:33;;;;;;;;;;;9.40;99.90;;;;;;4979972;28;19929;-83
2023/09/14 05:58:59;;;;;;;;;;;9.50;99.90;;;;;;4960468;28;19984;-84
2023/09/14 06:01:25;;;;;;;;;;;9.60;99.90;;;;;;4931570;29;19980;-83
2023/09/14 06:03:50;;;;;;;;;;;9.70;99.90;;;;;;4930261;29;19935;-83
2023/09/14 06:06:16;;;;;;;;;;;9.80;99.90;;;;;;4963176;28;19935;-84
2023/09/14 06:08:42;;;;;;;;;;;9.80;99.90;;;;;;4964532;28;19930;-83
2023/09/14 06:11:07;;;;;;;;;;;9.80;99.90;;;;;;4930089;28;20632;-83
2023/09/14 06:13:33;;;;;;;;;;;9.90;99.90;;;;;;4958656;28;19981;-82
2023/09/14 06:15:59;;;;;;;;;;;9.90;99.90;;;;;;4949400;28;20033;-83
2023/09/14 06:18:24;;;;;;;;;;;9.90;99.90;;;;;;4961542;28;19953;-83
2023/09/14 06:20:50;;;;;;;;;;;10.00;99.90;;;;;;4937086;28;19934;-82
2023/09/14 06:23:15;;;;;;;;;;;10.00;99.90;;;;;;4928953;28;19927;-83
2023/09/14 06:25:42;;;;;;;;;;;10.10;99.90;;;;;;4935070;29;20526;-86
2023/09/14 06:28:08;;;;;;;;;;;10.20;99.90;;;;;;4929909;28;19941;-83
2023/09/14 06:30:33;;;;;;;;;;;10.30;99.90;;;;;;4924973;28;19931;-83
2023/09/14 06:32:59;;;;;;;;;;;10.40;99.90;;;;;;4915249;29;19981;-84
2023/09/14 06:35:25;;;;;;;;;;;10.50;99.90;;;;;;4924123;29;20294;-82
2023/09/14 06:37:51;;;;;;;;;;;10.50;99.90;;;;;;4926172;28;19934;-84
2023/09/14 06:40:16;;;;;;;;;;;10.60;99.90;;;;;;4919145;29;19978;-83
2023/09/14 06:42:42;;;;;;;;;;;10.70;99.90;;;;;;4914033;29;19927;-83
2023/09/14 06:45:08;;;;;;;;;;;10.80;99.90;;;;;;4926750;28;20008;-83
2023/09/14 06:47:33;;;;;;;;;;;10.90;99.90;;;;;;4919224;29;19927;-82
2023/09/14 06:49:59;;;;;;;;;;;11.00;99.90;;;;;;4954716;28;20020;-84
2023/09/14 06:52:25;;;;;;;;;;;11.00;99.90;;;;;;4967939;28;20119;-82
2023/09/14 06:54:50;;;;;;;;;;;11.10;99.90;;;;;;4933794;28;20035;-84
2023/09/14 06:57:16;;;;;;;;;;;11.20;99.90;;;;;;4924439;28;19927;-82
2023/09/14 06:59:42;;;;;;;;;;;11.30;99.90;;;;;;4916817;28;20366;-83
2023/09/14 07:02:07;;;;;;;;;;;11.40;99.90;;;;;;4930114;28;20301;-84
2023/09/14 07:04:33;;;;;;;;;;;11.40;99.90;;;;;;4916979;29;19931;-85
2023/09/14 07:06:59;;;;;;;;;;;11.60;99.90;;;;;;4927592;28;20378;-83
2023/09/14 07:09:24;;;;;;;;;;;11.90;99.90;;;;;;4948756;28;19926;-82
2023/09/14 07:11:50;;;;;;;;;;;12.40;99.90;;;;;;4969374;28;20384;-83
2023/09/14 07:14:15;;;;;;;;;;;12.80;99.90;;;;;;4972653;28;19925;-86
2023/09/14 07:16:41;;;;;;;;;;;13.50;99.90;;;;;;4961438;28;19984;-85
2023/09/14 07:19:07;;;;;;;;;;;14.20;99.90;;;;;;4926386;29;19927;-83
2023/09/14 07:21:36;;;;;;;;;;;15.00;99.90;;;;;;4926904;29;19940;-85
2023/09/14 07:24:03;;;;;;;;;;;15.60;99.90;;;;;;4915544;29;19974;-84
2023/09/14 07:26:29;;;;;;;;;;;16.20;99.90;;;;;;4917208;29;19980;-83
2023/09/14 07:28:54;;;;;;;;;;;16.80;99.90;;;;;;4931597;28;19970;-84
2023/09/14 07:31:20;;;;;;;;;;;17.30;99.90;;;;;;4933565;28;19962;-84
2023/09/14 07:33:46;;;;;;;;;;;17.70;99.90;;;;;;4944179;28;20400;-84
2023/09/14 07:36:14;;;;;;;;;;;18.10;99.90;;;;;;4917632;29;19945;-86
2023/09/14 07:38:39;;;;;;;;;;;18.40;99.90;;;;;;4933439;29;20021;-85
2023/09/14 07:41:05;;;;;;;;;;;18.80;99.90;;;;;;4947579;28;20013;-86
2023/09/14 07:43:31;;;;;;;;;;;19.00;99.90;;;;;;4935154;29;20369;-85
2023/09/14 07:45:56;;;;;;;;;;;19.20;99.90;;;;;;4933910;29;19934;-85
2023/09/14 07:48:22;;;;;;;;;;;19.60;99.90;;;;;;4933321;29;19927;-89
2023/09/14 07:50:48;;;;;;;;;;;19.80;99.90;;;;;;4903675;28;19981;-83
2023/09/14 07:53:13;;;;;;;;;;;20.00;99.90;;;;;;4930772;29;19927;-83
2023/09/14 07:55:39;;;;;;;;;;;20.00;99.90;;;;;;4929202;29;19990;-83
2023/09/14 07:58:08;;;;;;;;;;;20.00;99.90;;;;;;4930079;29;19933;-84
2023/09/14 08:00:34;;;;;;;;;;;20.10;99.90;;;;;;4934485;29;19969;-84
2023/09/14 08:03:00;;;;;;;;;;;20.10;99.90;;;;;;4930574;29;19930;-83
2023/09/14 08:05:25;;;;;;;;;;;20.40;99.90;;;;;;4926990;29;20396;-86
2023/09/14 08:07:52;;;;;;;;;;;20.50;99.90;;;;;;4924816;28;19946;-83
2023/09/14 08:10:18;;;;;;;;;;;20.60;99.90;;;;;;4923892;29;19949;-83
2023/09/14 08:12:43;;;;;;;;;;;20.70;99.90;;;;;;4927893;28;20366;-84
2023/09/14 08:15:09;;;;;;;;;;;20.60;99.90;;;;;;4926774;28;19935;-83
2023/09/14 08:17:35;;;;;;;;;;;20.60;99.90;;;;;;4930584;29;19935;-84
2023/09/14 08:20:00;;;;;;;;;;;20.80;99.90;;;;;;4932254;29;20042;-85
2023/09/14 08:22:26;;;;;;;;;;;20.80;99.90;;;;;;4931166;29;19949;-83
2023/09/14 08:24:52;;;;;;;;;;;20.80;99.90;;;;;;4930782;29;20319;-86
2023/09/14 08:27:18;;;;;;;;;;;20.90;99.90;;;;;;4932087;29;19954;-81
2023/09/14 08:29:44;;;;;;;;;;;21.00;99.90;;;;;;4933368;28;19927;-83
2023/09/14 08:32:10;;;;;;;;;;;21.00;99.90;;;;;;4933297;29;20305;-82
2023/09/14 08:34:36;;;;;;;;;;;21.00;99.90;;;;;;4934611;29;19927;-84
2023/09/14 08:37:02;;;;;;;;;;;21.00;99.90;;;;;;4931947;28;20374;-84
2023/09/14 08:39:28;;;;;;;;;;;21.00;99.90;;;;;;4934286;29;20072;-85
2023/09/14 08:41:53;;;;;;;;;;;21.00;99.90;;;;;;4933360;29;20018;-85
2023/09/14 08:44:21;;;;;;;;;;;21.10;99.90;;;;;;4934224;29;19946;-84
2023/09/14 08:46:47;;;;;;;;;;;21.10;99.90;;;;;;4933204;29;19933;-85
2023/09/14 08:49:15;;;;;;;;;;;21.20;99.90;;;;;;4933711;29;19934;-83
2023/09/14 08:51:41;;;;;;;;;;;21.10;99.90;;;;;;4926077;29;20286;-84
2023/09/14 08:54:06;;;;;;;;;;;21.00;99.90;;;;;;4927233;29;19927;-83
2023/09/14 08:56:32;;;;;;;;;;;20.80;99.90;;;;;;4933767;29;19927;-82
2023/09/14 08:59:01;;;;;;;;;;;20.80;99.90;;;;;;4932516;29;19927;-83
2023/09/14 09:01:27;;;;;;;;;;;20.90;99.90;;;;;;4932032;29;19934;-82
2023/09/14 09:03:52;;;;;;;;;;;21.20;99.90;;;;;;4930952;29;19989;-82
2023/09/14 09:06:20;;;;;;;;;;;21.30;99.90;;;;;;4932328;28;20039;-84
2023/09/14 09:08:46;;;;;;;;;;;21.50;99.90;;;;;;4931519;29;19927;-82
2023/09/14 09:11:12;;;;;;;;;;;21.40;99.90;;;;;;4932393;29;20282;-82
2023/09/14 09:13:41;;;;;;;;;;;21.40;99.90;;;;;;4931474;29;20002;-83
2023/09/14 09:16:07;;;;;;;;;;;21.50;99.90;;;;;;4933743;29;19978;-83
2023/09/14 09:18:35;;;;;;;;;;;21.60;99.90;;;;;;4932792;29;19985;-82
2023/09/14 09:21:05;;;;;;;;;;;21.70;99.90;;;;;;4932719;29;19934;-83
2023/09/14 09:23:32;;;;;;;;;;;21.80;99.90;;;;;;4931899;29;19934;-82
2023/09/14 09:25:57;;;;;;;;;;;22.00;99.90;;;;;;4932762;29;19926;-82
2023/09/14 09:28:27;;;;;;;;;;;22.10;99.90;;;;;;4932830;29;19938;-82
2023/09/14 09:30:54;;;;;;;;;;;22.10;99.90;;;;;;4932864;29;20014;-81
2023/09/14 09:33:31;;;;;;;;;;;22.20;99.90;;;;;;4932533;29;19931;-84
2023/09/14 09:35:58;;;;;;;;;;;22.40;99.90;;;;;;4932528;29;19927;-82
2023/09/14 09:38:27;;;;;;;;;;;22.60;99.90;;;;;;4930571;29;19930;-86
2023/09/14 09:40:53;;;;;;;;;;;22.70;99.90;;;;;;4927648;29;19934;-83
2023/09/14 09:43:18;;;;;;;;;;;22.80;99.90;;;;;;4931496;29;20304;-83
2023/09/14 09:45:46;;;;;;;;;;;22.80;99.90;;;;;;4933199;29;19927;-83
2023/09/14 09:48:12;;;;;;;;;;;22.90;99.90;;;;;;4932673;29;19926;-82
2023/09/14 09:50:37;;;;;;;;;;;23.00;99.90;;;;;;4931375;29;20017;-84
2023/09/14 09:53:08;;;;;;;;;;;23.10;99.90;;;;;;4931844;28;20025;-84
2023/09/14 09:55:33;;;;;;;;;;;23.10;99.90;;;;;;4931587;29;19927;-83
2023/09/14 09:57:59;;;;;;;;;;;23.00;99.90;;;;;;4932430;28;19938;-83
2023/09/14 10:00:29;;;;;;;;;;;23.10;99.90;;;;;;4927632;29;19931;-83
2023/09/14 10:02:55;;;;;;;;;;;23.20;99.90;;;;;;4932915;28;20370;-82
2023/09/14 10:05:27;;;;;;;;;;;23.30;99.90;;;;;;4933056;29;19938;-83
2023/09/14 10:07:53;;;;;;;;;;;23.20;99.10;;;;;;4931467;29;20353;-83
2023/09/14 10:10:22;;;;;;;;;;;23.10;99.90;;;;;;4930922;29;19977;-83
2023/09/14 10:12:48;;;;;;;;;;;22.70;99.90;;;;;;4930095;29;19934;-84
2023/09/14 10:15:14;;;;;;;;;;;22.50;99.90;;;;;;4932701;29;19927;-83
2023/09/14 10:17:40;;;;;;;;;;;22.20;99.90;;;;;;4933176;28;19937;-82
2023/09/14 10:20:06;;;;;;;;;;;22.00;99.90;;;;;;4924075;29;19927;-82
2023/09/14 10:22:32;;;;;;;;;;;21.80;99.90;;;;;;4931741;29;19934;-82
2023/09/14 10:24:58;;;;;;;;;;;21.60;99.90;;;;;;4932742;28;19930;-82
2023/09/14 10:27:27;;;;;;;;;;;21.40;99.90;;;;;;4931099;29;20541;-83
2023/09/14 10:29:54;;;;;;;;;;;21.40;99.90;;;;;;4929656;29;20381;-85
2023/09/14 10:32:21;;;;;;;;;;;21.30;99.90;;;;;;4930173;29;20026;-87
2023/09/14 10:34:48;;;;;;;;;;;21.30;99.90;;;;;;4931346;29;19981;-81
2023/09/14 10:37:14;;;;;;;;;;;21.30;99.90;;;;;;4930745;29;20422;-83
2023/09/14 10:39:40;;;;;;;;;;;21.30;99.90;;;;;;4932510;29;19927;-83
2023/09/14 10:42:06;;;;;;;;;;;21.20;99.90;;;;;;4930151;29;19927;-85
2023/09/14 10:44:32;;;;;;;;;;;21.20;99.90;;;;;;4935286;29;19938;-85
2023/09/14 10:46:58;;;;;;;;;;;21.20;99.90;;;;;;4914930;29;20290;-83
2023/09/14 10:49:28;;;;;;;;;;;21.30;99.90;;;;;;4930850;29;19927;-84
2023/09/14 10:51:55;;;;;;;;;;;21.40;99.90;;;;;;4933039;29;19973;-84
2023/09/14 10:54:21;;;;;;;;;;;21.50;99.90;;;;;;4915788;29;19927;-84
2023/09/14 10:56:47;;;;;;;;;;;21.60;99.90;;;;;;4931921;29;19934;-84
2023/09/14 10:59:13;;;;;;;;;;;21.50;99.90;;;;;;4932090;29;19930;-83
2023/09/14 11:01:46;;;;;;;;;;;21.50;99.90;;;;;;4915713;29;19927;-84
2023/09/14 11:04:13;;;;;;;;;;;21.50;99.90;;;;;;4932086;29;20392;-84
2023/09/14 11:06:49;;;;;;;;;;;21.60;99.90;;;;;;4931220;29;19927;-84
2023/09/14 11:09:15;;;;;;;;;;;21.50;99.90;;;;;;4931420;29;20370;-83
2023/09/14 11:11:43;;;;;;;;;;;21.20;99.90;;;;;;4930637;28;19927;-84
2023/09/14 11:14:13;;;;;;;;;;;21.10;99.90;;;;;;4931336;29;20021;-83
2023/09/14 11:16:49;;;;;;;;;;;21.10;99.90;;;;;;4932492;29;19982;-84
2023/09/14 11:19:29;;;;;;;;;;;20.90;99.90;;;;;;4941602;29;19932;-84
2023/09/14 11:22:00;;;;;;;;;;;20.70;99.90;;;;;;4932740;28;19931;-84
2023/09/14 11:24:33;;;;;;;;;;;20.50;99.90;;;;;;4932188;29;20029;-84
2023/09/14 11:26:59;;;;;;;;;;;20.30;99.90;;;;;;4945596;29;19930;-83
2023/09/14 11:29:27;;;;;;;;;;;20.20;99.90;;;;;;4929249;29;19927;-82
2023/09/14 11:32:08;;;;;;;;;;;20.40;99.90;;;;;;4927247;29;19927;-86
2023/09/14 11:34:37;;;;;;;;;;;20.70;99.90;;;;;;4924992;29;19926;-83
2023/09/14 11:37:05;;;;;;;;;;;20.80;99.90;;;;;;4931837;29;20297;-83
2023/09/14 11:39:31;;;;;;;;;;;20.90;99.90;;;;;;4928799;29;20017;-85
2023/09/14 11:42:00;;;;;;;;;;;21.10;99.90;;;;;;4930416;28;19927;-83
2023/09/14 11:44:28;;;;;;;;;;;21.20;99.90;;;;;;4932118;28;20348;-82
2023/09/14 11:46:54;;;;;;;;;;;21.50;99.90;;;;;;4934924;29;20017;-83
2023/09/14 11:49:21;;;;;;;;;;;21.80;99.90;;;;;;4933881;29;19945;-82
2023/09/14 11:51:47;;;;;;;;;;;22.00;99.90;;;;;;4931935;29;20378;-82
2023/09/14 11:54:13;;;;;;;;;;;22.30;99.90;;;;;;4934756;28;20378;-82
2023/09/14 11:56:38;;;;;;;;;;;22.40;99.90;;;;;;4933531;29;19927;-83
2023/09/14 11:59:04;;;;;;;;;;;22.20;99.90;;;;;;4939241;29;19934;-84
2023/09/14 12:01:34;;;;;;;;;;;21.90;99.90;;;;;;4933890;28;19931;-83
2023/09/14 12:04:02;;;;;;;;;;;21.60;99.90;;;;;;4934872;29;19931;-84
2023/09/14 12:06:28;;;;;;;;;;;21.30;99.90;;;;;;4934532;29;20014;-83
2023/09/14 12:08:53;;;;;;;;;;;21.20;99.90;;;;;;4933910;29;20357;-83
2023/09/14 12:11:21;;;;;;;;;;;21.10;99.70;;;;;;4933465;29;20074;-82
2023/09/14 12:13:54;;;;;;;;;;;21.10;99.90;;;;;;4934682;29;19927;-82
2023/09/14 12:16:24;;;;;;;;;;;21.20;99.90;;;;;;4934180;29;19931;-82
2023/09/14 12:18:51;;;;;;;;;;;21.10;99.90;;;;;;4933424;29;19931;-83
2023/09/14 12:21:18;;;;;;;;;;;20.90;99.90;;;;;;4933310;29;19927;-84
2023/09/14 12:23:45;;;;;;;;;;;20.70;99.90;;;;;;4934541;29;20400;-84
2023/09/14 12:26:15;;;;;;;;;;;20.60;99.90;;;;;;4933294;29;19933;-83
2023/09/14 12:28:52;;;;;;;;;;;20.40;99.90;;;;;;4935026;28;19985;-84
2023/09/14 12:31:19;;;;;;;;;;;20.40;99.90;;;;;;4933887;29;19931;-83
2023/09/14 12:33:44;;;;;;;;;;;20.50;98.90;;;;;;4933341;28;19938;-83
2023/09/14 12:36:11;;;;;;;;;;;20.50;98.30;;;;;;4934243;29;19926;-86
2023/09/14 12:38:37;;;;;;;;;;;20.50;99.90;;;;;;4934424;29;20397;-82
2023/09/14 12:41:05;;;;;;;;;;;20.50;99.90;;;;;;4931767;29;19926;-83
2023/09/14 12:43:31;;;;;;;;;;;20.40;99.90;;;;;;4932452;29;20423;-82
2023/09/14 12:45:57;;;;;;;;;;;20.40;99.90;;;;;;4933041;29;20409;-82
2023/09/14 12:48:24;;;;;;;;;;;20.40;99.90;;;;;;4933244;29;19927;-83
2023/09/14 12:50:51;;;;;;;;;;;20.30;99.90;;;;;;4930918;29;19941;-83
2023/09/14 12:53:17;;;;;;;;;;;20.20;99.90;;;;;;4936659;28;19926;-84
2023/09/14 12:55:43;;;;;;;;;;;20.10;99.90;;;;;;4944147;28;20296;-83
2023/09/14 12:58:09;;;;;;;;;;;20.10;99.90;;;;;;4939742;28;19926;-84
2023/09/14 13:00:37;;;;;;;;;;;20.00;99.90;;;;;;4960570;28;19926;-84
2023/09/14 13:03:09;;;;;;;;;;;20.00;99.90;;;;;;4948859;28;20339;-83
2023/09/14 13:05:34;;;;;;;;;;;20.00;99.90;;;;;;4938077;28;19936;-83
2023/09/14 13:08:01;;;;;;;;;;;20.00;99.90;;;;;;4967761;28;19930;-83
2023/09/14 13:10:27;;;;;;;;;;;20.00;99.90;;;;;;4941434;29;19930;-81
2023/09/14 13:12:54;;;;;;;;;;;20.10;99.90;;;;;;4955392;28;20017;-84
2023/09/14 13:15:23;;;;;;;;;;;20.20;99.90;;;;;;4926810;29;19937;-83
2023/09/14 13:17:49;;;;;;;;;;;20.30;99.90;;;;;;4966625;28;19927;-83
2023/09/14 13:20:15;;;;;;;;;;;20.50;99.90;;;;;;4948843;28;19930;-83
2023/09/14 13:22:41;;;;;;;;;;;20.80;99.90;;;;;;4949927;28;20004;-84
2023/09/14 13:25:06;;;;;;;;;;;20.90;99.90;;;;;;4934318;29;19934;-84
2023/09/14 13:27:34;;;;;;;;;;;21.00;99.90;;;;;;4955476;28;19927;-83
2023/09/14 13:30:05;;;;;;;;;;;21.20;99.90;;;;;;4946386;28;20068;-83
2023/09/14 13:32:31;;;;;;;;;;;21.30;99.90;;;;;;4933754;29;19927;-83
2023/09/14 13:34:57;;;;;;;;;;;21.30;99.90;;;;;;4921582;29;20452;-84
2023/09/14 13:37:22;;;;;;;;;;;21.20;99.70;;;;;;4935939;29;20388;-84
2023/09/14 13:39:48;;;;;;;;;;;21.00;98.80;;;;;;4918831;29;20014;-84
2023/09/14 13:42:13;;;;;;;;;;;20.80;97.80;;;;;;4975408;28;20445;-84
2023/09/14 13:44:39;;;;;;;;;;;20.60;99.90;;;;;;4932201;28;19935;-84
2023/09/14 13:47:04;;;;;;;;;;;20.60;99.90;;;;;;4933236;29;20021;-81
2023/09/14 13:49:30;;;;;;;;;;;20.60;99.90;;;;;;4933032;29;20377;-83
2023/09/14 13:51:56;;;;;;;;;;;20.80;99.90;;;;;;4934138;29;19962;-83
2023/09/14 13:54:21;;;;;;;;;;;21.10;99.90;;;;;;4934111;29;20370;-82
2023/09/14 13:56:47;;;;;;;;;;;21.40;99.90;;;;;;4932968;29;19927;-83
2023/09/14 13:59:12;;;;;;;;;;;21.70;98.30;;;;;;4931836;29;19993;-82
2023/09/14 14:01:38;;;;;;;;;;;21.70;99.90;;;;;;4933653;29;19927;-84
2023/09/14 14:04:04;;;;;;;;;;;21.60;97.40;;;;;;4954419;28;19938;-82
2023/09/14 14:06:29;;;;;;;;;;;21.50;99.60;;;;;;4929706;29;19935;-83
2023/09/14 14:08:55;;;;;;;;;;;21.50;98.60;;;;;;4932933;29;19927;-83
2023/09/14 14:11:20;;;;;;;;;;;21.60;99.80;;;;;;4933933;29;19927;-82
2023/09/14 14:13:46;;;;;;;;;;;21.80;99.60;;;;;;4933544;29;19927;-82
2023/09/14 14:16:12;;;;;;;;;;;21.80;99.50;;;;;;4932966;28;19931;-83